Garfield, AR (72732)

7:49 AM CDT on April 28, 2015 (GMT -0500)
War Eagle River | | Change Station
CLOSE
Current Station
Personal Weather Station
Location: Rogers, AR
Elevation: 1299 ft
Nearby Weather Stations

Elev 1299 ft 36.25 °N, 93.96 °W | Updated 12 seconds ago

Clear
Clear
50.2 °F
Feels Like 50.2 °F
N
6.5
Wind Variable Wind from NE
Gusts 7.4 mph

Today
High -- | Low -- °F
--% Chance of Precip.
Yesterday
High -- | Low -- °F
Precip. -- in
6:26 AM 8:00 PM
Waxing Gibbous, 73% visible
Pressure 30.09 in
Visibility 10.0 miles
Clouds Clear
Dew Point 38 °F
Humidity 64%
Rainfall 0.00 in
Snow Depth Not available.
UV 1.0 out of 12
Pollen 10.10 out of 12
Air Quality Not available.
Flu Activity Sporadic
METAR KROG 281157Z 04005KT 10SM CLR 09/04 A3009 RMK AO2 SLP187 6//// 7//// T00890039 10133 20083 53010 PNO $

More Conditions Fewer Conditions

Pressure 30.09 in
Visibility 10.0 miles
Clouds Clear
Dew Point 38 °F
Humidity 64%
Rainfall 0.00 in
Snow Depth Not available.
UV 1.0 out of 12
Pollen 10.10 out of 12
Air Quality Not available.
Flu Activity Sporadic
METAR KROG 281157Z 04005KT 10SM CLR 09/04 A3009 RMK AO2 SLP187 6//// 7//// T00890039 10133 20083 53010 PNO $

More Conditions Fewer Conditions

Nowcast | as of 7:16 am CDT on April 28, 2015

At 7:11 am... a band of moderate to heavy rain was indicated by National Weather Service radar across portions of northeast and east central Oklahoma into west central Arkansas. The precipitation was shifting toward the west northwest. Through 9 am... locations primarily between Highway 412 and Interstate 40 will continue to experience the most steady rainfall. Average hourly rainfall rates from a tenth to nearly a quarter of an inch... are anticipated.

×

10-Day Weather Forecast

Almanac

Astronomy

Apr. 28, 2015 Rise Set
Actual Time
Civil Twilight
Nautical Twilight
Astronomical Twilight
Moon
Length of Visible Light
Length of Day
Tomorrow will be .
, % of the Moon is Illuminated

Today's Extremes

State Highs State Lows

Community

WunderPhotos

Upload Photos

1,817,618 photos uploaded!

WunderBlogs® & News

Nearby

Air Quality

  Air Quality AQ Index Pollutant
Not available.

Snow Depth

Station Depth Elevation

Earthquake Activity

City Distance Mag. Time & Date
Minimum magnitude displayed is 2.5.

Coastal Water Temperatures

Place Temperature

Stations

Nearby Weather Stations

Station Location Temp. Windchill Dew Point Humidity Wind Precip. Elev Updated Type